Raugust, Washington
Current Conditions -  °F | °C
As of 11:52 PM on Monday 20 Oct 2014 (Local Time) from KMWH Reporting Station
Few Clouds Few Clouds  
Wind Chill: 51°   Ceiling: Unl
Heat Index: 51°   Visibility: 10mi
Dew Point: 49°   Wind: 15mph
Humidity: 92%   Direction: 180°S
Pressure: 29.81"   Gusts: NA
Location:  47.1758°N, 119.289°W
Report Text: KMWH 210652Z 18013KT 10SM FEW007 11/09 A2981 RMK AO2 SLP094 T01060094
Loading
Personal Weather Stations






























Interactive Weather Map
Tropical Storm Tracking
New forecast layout! Learn more

10-Day Weather Forecast

Advertisements
Track Severe Weather on mobile